Time;durP1;ratioP1;P1;durP2;ratioP2;P2;SDS_P1;SDS_P2;PMS_P1;PMS_P2;Temp;Humidity;BMP_temperature;BMP_pressure;BME280_temperature;BME280_humidity;BME280_pressure;Samples;Min_cycle;Max_cycle;Signal;HPM_P1;HPM_P2
2021/12/17 00:00:45;;;;;;;8.30;7.47;;;;;;;5.82;70.43;100242.31;5093169;28;20197;-71
2021/12/17 00:03:21;;;;;;;7.83;7.23;;;;;;;5.77;70.35;100240.06;5092642;28;20179;-71
2021/12/17 00:06:07;;;;;;;7.83;7.17;;;;;;;5.84;69.98;100229.81;5093482;28;20182;-71
2021/12/17 00:08:34;;;;;;;6.87;6.37;;;;;;;5.94;69.80;100235.03;5092364;28;20278;-71
2021/12/17 00:11:01;;;;;;;7.17;6.57;;;;;;;5.98;69.89;100239.03;5092233;28;20710;-71
2021/12/17 00:13:28;;;;;;;7.40;6.73;;;;;;;5.99;69.93;100233.59;5091893;28;20250;-71
2021/12/17 00:15:55;;;;;;;7.50;6.60;;;;;;;6.04;69.85;100236.63;5092192;28;20797;-71
2021/12/17 00:18:29;;;;;;;7.73;6.90;;;;;;;6.00;69.96;100231.81;5092474;28;20199;-71
2021/12/17 00:48:38;;;;;;;7.63;7.03;;;;;;;5.81;70.63;100227.50;5092141;28;20214;-71
2021/12/17 00:54:20;;;;;;;7.33;6.83;;;;;;;5.91;69.94;100220.34;5096095;28;20183;-71
2021/12/17 00:56:46;;;;;;;6.97;6.37;;;;;;;5.95;70.06;100220.88;5095717;28;20191;-71
2021/12/17 00:59:13;;;;;;;8.77;7.90;;;;;;;5.94;69.96;100230.59;5096155;28;20187;-71
2021/12/17 01:01:40;;;;;;;7.77;7.13;;;;;;;5.96;69.89;100228.63;5095580;28;20228;-72
2021/12/17 01:04:07;;;;;;;7.90;7.20;;;;;;;5.93;69.75;100230.75;5095524;28;20252;-72
2021/12/17 01:06:35;;;;;;;8.37;7.67;;;;;;;5.99;70.02;100232.75;5095186;28;20655;-70
2021/12/17 01:09:03;;;;;;;7.00;6.50;;;;;;;6.00;69.41;100234.44;5095363;28;20320;-70
2021/12/17 01:11:30;;;;;;;7.67;6.63;;;;;;;5.89;69.67;100229.38;5095102;28;20616;-70
2021/12/17 01:13:57;;;;;;;7.43;6.77;;;;;;;5.78;69.85;100223.31;5096214;28;20199;-69
2021/12/17 01:16:24;;;;;;;7.10;6.60;;;;;;;5.78;70.16;100222.47;5095245;28;20195;-70
2021/12/17 01:19:00;;;;;;;6.97;6.47;;;;;;;5.77;70.16;100221.63;5095542;28;20274;-70
2021/12/17 01:21:38;;;;;;;7.30;6.70;;;;;;;5.77;70.08;100213.72;5095225;28;20186;-70
2021/12/17 01:24:15;;;;;;;6.77;6.27;;;;;;;5.81;70.23;100216.09;5095745;28;20278;-70
2021/12/17 01:43:23;;;;;;;7.20;6.50;;;;;;;5.67;71.44;100202.41;5095140;28;20187;-70
2021/12/17 01:45:50;;;;;;;7.70;7.00;;;;;;;5.68;71.65;100198.81;5094774;28;20191;-70
2021/12/17 01:48:23;;;;;;;8.23;7.53;;;;;;;5.68;71.32;100204.06;5094326;28;20191;-70
2021/12/17 01:56:37;;;;;;;8.17;7.47;;;;;;;5.47;71.87;100190.31;5094697;28;20197;-70
2021/12/17 01:59:26;;;;;;;7.77;7.00;;;;;;;5.46;72.05;100199.22;5094408;28;20210;-70
2021/12/17 02:02:01;;;;;;;7.37;6.87;;;;;;;5.49;72.28;100191.03;5095045;28;20192;-70
2021/12/17 02:04:28;;;;;;;7.63;7.07;;;;;;;5.50;71.96;100200.56;5095292;28;20191;-70
2021/12/17 02:06:55;;;;;;;7.63;7.00;;;;;;;5.50;72.43;100205.84;5094328;28;20187;-70
2021/12/17 02:10:07;;;;;;;11.03;6.77;;;;;;;5.46;72.41;100199.22;5094238;28;20252;-71
2021/12/17 02:12:57;;;;;;;8.07;7.37;;;;;;;5.46;72.15;100201.84;5094351;28;20286;-71
2021/12/17 02:29:53;;;;;;;7.80;7.10;;;;;;;5.41;73.02;100196.19;5093976;28;20223;-70
2021/12/17 02:32:22;;;;;;;7.73;7.03;;;;;;;5.41;72.49;100185.66;5093650;28;20755;-70
2021/12/17 02:35:03;;;;;;;7.97;7.37;;;;;;;5.48;72.41;100184.06;5093523;28;20198;-71
2021/12/17 02:37:33;;;;;;;8.23;7.53;;;;;;;5.44;72.60;100177.44;5093762;28;20250;-70
2021/12/17 02:40:15;;;;;;;7.43;6.83;;;;;;;5.46;72.56;100180.78;5093680;28;20615;-70
2021/12/17 02:45:33;;;;;;;8.07;7.27;;;;;;;5.33;72.88;100175.03;5092445;28;20176;-70
2021/12/17 02:48:02;;;;;;;8.20;7.50;;;;;;;5.32;72.96;100175.16;5094376;28;20191;-70
2021/12/17 02:50:29;;;;;;;7.70;7.00;;;;;;;5.30;73.00;100177.94;5093178;28;20771;-70
2021/12/17 02:53:01;;;;;;;7.27;6.67;;;;;;;5.34;73.37;100179.31;5093149;28;20195;-69
2021/12/17 02:55:30;;;;;;;7.23;6.53;;;;;;;5.26;72.92;100171.31;5093174;28;20236;-69
2021/12/17 02:57:58;;;;;;;7.77;7.17;;;;;;;5.29;73.38;100175.44;5093685;28;20274;-70
2021/12/17 03:00:24;;;;;;;7.93;7.27;;;;;;;5.19;73.57;100180.75;5092964;28;20658;-70
2021/12/17 03:02:55;;;;;;;7.13;6.53;;;;;;;5.25;73.70;100179.34;5093251;28;20192;-70
2021/12/17 03:05:22;;;;;;;7.33;6.73;;;;;;;5.22;73.32;100185.72;5094117;28;20191;-70
2021/12/17 03:07:49;;;;;;;7.37;6.80;;;;;;;5.23;73.81;100181.31;5092878;28;20195;-70
2021/12/17 03:10:17;;;;;;;6.90;6.33;;;;;;;5.24;73.98;100178.50;5092738;28;20215;-70
2021/12/17 03:12:47;;;;;;;7.17;6.50;;;;;;;5.21;74.06;100173.56;5092893;28;20192;-70
2021/12/17 03:15:22;;;;;;;8.00;7.10;;;;;;;5.19;74.15;100164.94;5092699;28;20191;-70
2021/12/17 03:23:40;;;;;;;7.67;6.43;;;;;;;5.25;73.96;100164.38;5093231;28;20710;-70
2021/12/17 03:26:11;;;;;;;7.13;6.60;;;;;;;5.22;74.03;100167.31;5093310;28;20270;-70
2021/12/17 03:28:39;;;;;;;8.07;7.33;;;;;;;5.26;74.18;100176.56;5092780;28;20260;-70
2021/12/17 03:31:07;;;;;;;7.27;6.57;;;;;;;5.26;74.36;100176.56;5093266;28;20705;-70
2021/12/17 03:33:35;;;;;;;7.10;6.50;;;;;;;5.27;74.34;100172.94;5092612;28;20626;-70
2021/12/17 03:36:02;;;;;;;7.00;6.40;;;;;;;5.25;74.16;100167.00;5092655;28;20189;-70
2021/12/17 03:38:29;;;;;;;7.17;6.50;;;;;;;5.38;73.98;100180.66;5092639;28;20193;-70
2021/12/17 03:41:10;;;;;;;7.67;7.00;;;;;;;5.29;74.00;100171.03;5092234;28;20197;-69
2021/12/17 03:43:38;;;;;;;7.33;6.73;;;;;;;5.35;74.63;100173.06;5092865;28;20619;-70
2021/12/17 03:46:05;;;;;;;7.30;6.70;;;;;;;5.36;74.77;100169.44;5092216;28;20731;-70
2021/12/17 03:48:35;;;;;;;7.07;6.57;;;;;;;5.36;74.43;100177.34;5092477;28;20191;-70
2021/12/17 03:51:02;;;;;;;7.40;6.70;;;;;;;5.44;74.20;100168.72;5093020;28;20656;-69
2021/12/17 03:53:29;;;;;;;7.70;7.07;;;;;;;5.48;73.86;100164.81;5092464;28;20272;-70
2021/12/17 03:55:56;;;;;;;7.43;6.83;;;;;;;5.44;74.35;100164.25;5092391;28;20256;-70
2021/12/17 03:58:22;;;;;;;6.93;6.33;;;;;;;5.49;74.35;100164.69;5092634;28;20191;-70
2021/12/17 04:00:50;;;;;;;6.90;6.40;;;;;;;5.49;73.99;100166.47;5092293;28;20195;-70
2021/12/17 04:03:17;;;;;;;7.40;6.73;;;;;;;5.56;74.08;100173.63;5092314;28;20224;-70
2021/12/17 04:05:44;;;;;;;8.53;7.83;;;;;;;5.61;73.96;100166.09;5091955;28;20658;-70
2021/12/17 04:08:10;;;;;;;7.47;6.77;;;;;;;5.64;73.78;100162.38;5091942;28;20567;-70
2021/12/17 04:10:42;;;;;;;7.33;6.73;;;;;;;5.60;73.94;100163.63;5092178;28;20276;-70
2021/12/17 04:13:26;;;;;;;7.77;7.07;;;;;;;5.62;73.99;100162.50;5091937;28;20647;-70
2021/12/17 04:15:57;;;;;;;6.50;6.00;;;;;;;5.59;74.12;100160.16;5092498;28;20233;-70
2021/12/17 04:18:24;;;;;;;7.13;6.63;;;;;;;5.65;73.48;100162.19;5093042;28;20222;-70
2021/12/17 04:20:52;;;;;;;7.60;7.00;;;;;;;5.62;73.94;100162.50;5092125;28;20197;-70
2021/12/17 04:23:20;;;;;;;7.30;6.60;;;;;;;5.73;73.42;100164.91;5093817;28;20193;-70
2021/12/17 04:25:48;;;;;;;6.90;6.40;;;;;;;5.70;73.54;100149.41;5096273;28;20191;-70
2021/12/17 04:28:15;;;;;;;6.50;6.03;;;;;;;5.67;73.59;100160.25;5096688;28;20252;-71
2021/12/17 04:30:41;;;;;;;6.40;5.93;;;;;;;5.70;73.47;100153.84;5096827;28;20223;-71
2021/12/17 04:33:09;;;;;;;7.00;6.37;;;;;;;5.69;73.64;100155.66;5095804;28;20712;-71
2021/12/17 04:35:37;;;;;;;6.60;6.13;;;;;;;5.71;73.34;100148.44;5096871;28;20200;-71
2021/12/17 04:38:05;;;;;;;6.67;6.17;;;;;;;5.74;73.81;100156.06;5096512;28;20196;-71
2021/12/17 04:40:32;;;;;;;7.20;6.50;;;;;;;5.79;73.65;100152.94;5095917;28;20282;-71
2021/12/17 04:43:11;;;;;;;6.80;6.20;;;;;;;5.76;73.81;100159.34;5095821;28;20677;-71
2021/12/17 04:45:43;;;;;;;7.03;6.47;;;;;;;5.82;73.45;100155.31;5096133;28;20184;-69
2021/12/17 04:59:08;;;;;;;8.67;7.77;;;;;;;5.76;74.11;100159.34;5096040;28;20244;-69
2021/12/17 05:01:36;;;;;;;6.87;6.40;;;;;;;5.74;74.11;100153.41;5095532;28;20187;-72
2021/12/17 05:04:05;;;;;;;8.73;8.03;;;;;;;5.73;74.30;100159.66;5095163;28;20665;-72
2021/12/17 05:06:32;;;;;;;8.00;7.20;;;;;;;5.77;74.28;100154.94;5095309;28;20191;-73
2021/12/17 05:09:09;;;;;;;10.50;7.70;;;;;;;5.76;73.99;100151.44;5095500;28;20191;-73
2021/12/17 05:18:14;;;;;;;8.10;7.30;;;;;;;5.73;74.15;100153.56;5095580;28;20212;-72
2021/12/17 05:20:23;;;;;;;8.03;6.97;;;;;;;5.72;73.72;100146.63;5095235;28;20198;-74
2021/12/17 05:22:55;;;;;;;8.17;7.53;;;;;;;5.78;73.60;100152.16;5095167;28;20183;-72
2021/12/17 05:25:26;;;;;;;7.20;6.67;;;;;;;5.78;73.57;100153.94;5095987;28;20265;-71
2021/12/17 05:27:53;;;;;;;8.73;7.83;;;;;;;5.81;73.88;100144.94;5094665;28;20215;-71
2021/12/17 05:30:19;;;;;;;7.20;6.60;;;;;;;5.76;73.53;100146.19;5094740;28;20191;-71
2021/12/17 05:32:46;;;;;;;6.87;6.37;;;;;;;5.75;73.52;100131.34;5094538;28;20252;-71
2021/12/17 05:35:14;;;;;;;6.43;6.03;;;;;;;5.86;72.89;100127.69;5090680;28;20252;-64
2021/12/17 05:37:41;;;;;;;6.30;5.90;;;;;;;5.86;72.70;100116.31;5093799;28;20652;-63
2021/12/17 05:40:09;;;;;;;8.47;7.67;;;;;;;5.77;73.02;100108.28;5094479;28;20191;-66
2021/12/17 05:42:36;;;;;;;7.80;7.10;;;;;;;5.83;72.69;100112.16;5094205;28;20330;-64
2021/12/17 05:45:09;;;;;;;8.80;8.00;;;;;;;5.87;72.45;100108.25;5094956;28;20268;-64
2021/12/17 05:47:35;;;;;;;11.93;8.33;;;;;;;5.90;72.37;100120.31;5094069;28;20186;-64
2021/12/17 05:50:02;;;;;;;8.37;7.67;;;;;;;5.88;71.99;100119.63;5094957;28;20218;-64
2021/12/17 05:52:30;;;;;;;11.00;7.53;;;;;;;5.86;72.35;100113.66;5094710;28;20226;-64
2021/12/17 05:54:57;;;;;;;15.67;7.70;;;;;;;5.97;71.65;100110.81;5094018;28;20659;-64
2021/12/17 05:57:23;;;;;;;6.97;6.37;;;;;;;5.92;71.28;100105.19;5094391;28;20252;-64
2021/12/17 05:59:50;;;;;;;8.43;7.47;;;;;;;5.83;71.50;100096.34;5094408;28;20191;-64
2021/12/17 06:02:19;;;;;;;11.13;10.03;;;;;;;5.85;72.15;100104.13;5094036;28;20203;-64
2021/12/17 06:04:45;;;;;;;20.03;14.70;;;;;;;5.82;72.22;100105.25;5094314;28;20225;-65
2021/12/17 06:07:12;;;;;;;10.13;9.20;;;;;;;5.81;71.47;100103.59;5093953;28;20191;-65
2021/12/17 06:09:40;;;;;;;15.20;8.37;;;;;;;5.94;71.25;100111.94;5094077;28;20191;-65
2021/12/17 06:12:08;;;;;;;21.97;10.60;;;;;;;5.79;71.14;100084.41;5094013;28;20226;-65
2021/12/17 06:14:35;;;;;;;12.37;9.20;;;;;;;5.93;70.95;100112.94;5093780;28;20265;-66
2021/12/17 06:17:01;;;;;;;24.23;16.40;;;;;;;5.97;70.92;100110.81;5093380;28;20188;-66
2021/12/17 06:19:28;;;;;;;22.20;13.93;;;;;;;5.95;70.79;100118.06;5093633;28;20213;-65
2021/12/17 06:21:58;;;;;;;16.10;14.50;;;;;;;6.04;70.65;100119.78;5093589;28;20256;-65
2021/12/17 06:24:25;;;;;;;8.87;7.97;;;;;;;6.07;70.84;100119.47;5093591;28;20208;-65
2021/12/17 06:26:53;;;;;;;8.83;6.80;;;;;;;6.08;70.56;100124.59;5093936;28;20245;-65
2021/12/17 06:29:20;;;;;;;7.13;6.53;;;;;;;6.16;71.07;100135.19;5092963;28;20187;-65
2021/12/17 06:31:46;;;;;;;7.03;6.43;;;;;;;6.16;70.47;100139.66;5097787;28;20359;-66
2021/12/17 06:34:13;;;;;;;7.03;6.53;;;;;;;6.21;70.53;100132.13;5101665;28;20195;-64
2021/12/17 06:36:40;;;;;;;7.80;6.97;;;;;;;6.26;70.80;100119.28;5099239;28;20731;-66
2021/12/17 06:39:07;;;;;;;9.73;6.80;;;;;;;6.14;71.02;100109.97;5101438;28;20253;-64
2021/12/17 06:41:34;;;;;;;7.83;7.03;;;;;;;6.13;71.42;100124.13;5104853;28;20194;-64
2021/12/17 06:44:02;;;;;;;8.20;7.53;;;;;;;6.19;71.14;100118.25;5113838;28;20234;-65
2021/12/17 06:46:36;;;;;;;11.80;10.47;;;;;;;6.28;70.67;100118.16;5111314;28;20194;-64
2021/12/17 06:49:19;;;;;;;6.50;6.07;;;;;;;6.30;70.76;100125.91;5095382;28;20193;-64
2021/12/17 06:54:43;;;;;;;8.77;8.03;;;;;;;6.38;70.69;100132.09;5113585;28;20558;-65
2021/12/17 07:00:18;;;;;;;7.77;7.17;;;;;;;6.38;71.14;100139.16;5113355;28;20182;-65
2021/12/17 07:10:57;;;;;;;11.10;8.67;;;;;;;6.41;71.15;100138.88;5093372;28;20198;-66
2021/12/17 07:19:51;;;;;;;12.97;9.93;;;;;;;6.31;71.40;100127.56;5093099;28;20188;-65
2021/12/17 07:22:03;;;;;;;13.50;8.20;;;;;;;6.33;72.02;100130.91;5099099;28;20202;-64
2021/12/17 07:33:08;;;;;;;10.00;7.97;;;;;;;6.54;72.78;100123.47;5130240;28;20274;-65
2021/12/17 07:35:48;;;;;;;9.07;8.13;;;;;;;6.63;72.67;100133.91;5130783;28;20188;-65
2021/12/17 07:41:01;;;;;;;8.67;7.93;;;;;;;6.84;72.37;100134.38;5130499;28;20188;-65
2021/12/17 07:43:36;;;;;;;7.93;7.30;;;;;;;6.91;71.73;100124.84;5129932;28;20244;-64
2021/12/17 07:46:05;;;;;;;7.47;6.97;;;;;;;7.00;72.10;100130.97;5130018;28;20591;-65
2021/12/17 07:48:33;;;;;;;8.27;6.60;;;;;;;7.06;71.98;100130.38;5130257;28;20278;-61
2021/12/17 07:51:02;;;;;;;7.73;5.67;;;;;;;7.11;70.96;100122.78;5129840;28;20194;-61
2021/12/17 07:53:28;;;;;;;6.33;5.83;;;;;;;7.20;70.48;100111.25;5129759;28;20190;-61
2021/12/17 07:55:55;;;;;;;6.53;6.00;;;;;;;7.32;70.57;100115.28;5129112;28;20274;-61
2021/12/17 07:58:22;;;;;;;6.43;5.87;;;;;;;7.29;70.54;100110.28;5124619;28;20194;-61
2021/12/17 08:00:50;;;;;;;16.83;6.07;;;;;;;7.43;70.02;100110.50;5130556;28;20558;-61
2021/12/17 08:03:17;;;;;;;6.73;5.40;;;;;;;7.54;68.70;100114.66;5129286;28;20197;-61
2021/12/17 08:05:44;;;;;;;8.70;6.10;;;;;;;7.53;67.68;100111.22;5128319;28;20218;-62
2021/12/17 08:08:11;;;;;;;6.63;6.13;;;;;;;7.69;68.17;100113.06;5128661;28;20204;-61
2021/12/17 08:10:38;;;;;;;6.87;6.37;;;;;;;7.71;67.91;100113.69;5129535;28;20223;-62
2021/12/17 08:13:06;;;;;;;7.33;6.60;;;;;;;7.92;67.55;100114.09;5129728;28;20190;-61
2021/12/17 08:15:39;;;;;;;5.97;5.40;;;;;;;7.96;66.67;100110.13;5129368;28;20669;-63
2021/12/17 08:26:20;;;;;;;8.43;4.73;;;;;;;8.12;67.11;100102.16;5108864;28;20245;-63
2021/12/17 08:28:56;;;;;;;5.50;5.10;;;;;;;8.18;67.13;100098.88;5108516;28;20725;-62
2021/12/17 08:31:23;;;;;;;5.67;5.27;;;;;;;8.07;66.84;100096.56;5108915;28;20606;-62
2021/12/17 08:33:52;;;;;;;7.40;6.37;;;;;;;8.09;67.47;100089.28;5108697;28;20248;-64
2021/12/17 08:36:19;;;;;;;14.37;9.43;;;;;;;8.11;67.44;100072.25;5109249;28;20194;-64
2021/12/17 08:38:49;;;;;;;15.10;10.43;;;;;;;8.27;66.50;100100.56;5106787;28;20270;-63
2021/12/17 08:41:17;;;;;;;16.83;11.13;;;;;;;8.29;66.29;100104.69;5112667;28;20282;-63
2021/12/17 08:43:44;;;;;;;15.80;9.67;;;;;;;8.36;67.04;100096.91;5113851;28;20186;-62
2021/12/17 08:46:11;;;;;;;13.67;9.53;;;;;;;8.39;66.47;100091.28;5115378;28;20218;-62
2021/12/17 08:48:38;;;;;;;10.27;7.60;;;;;;;8.68;65.51;100088.91;5115767;28;20195;-62
2021/12/17 08:51:08;;;;;;;14.23;10.03;;;;;;;8.85;64.70;100091.34;5115344;28;20197;-61
2021/12/17 08:53:35;;;;;;;17.80;6.13;;;;;;;8.85;64.62;100083.41;5114810;28;20209;-63
2021/12/17 08:56:02;;;;;;;7.60;6.90;;;;;;;8.81;64.99;100079.44;5115185;28;20244;-63
2021/12/17 08:58:28;;;;;;;5.87;5.47;;;;;;;8.79;64.82;100077.97;5114546;28;20738;-66
2021/12/17 09:00:55;;;;;;;5.80;5.30;;;;;;;8.64;66.08;100069.06;5114670;28;20186;-65
2021/12/17 09:03:22;;;;;;;5.10;4.70;;;;;;;8.57;66.01;100068.06;5114355;28;20224;-66
2021/12/17 09:05:50;;;;;;;5.17;4.77;;;;;;;8.63;66.01;100068.25;5114963;28;20275;-64
2021/12/17 09:08:18;;;;;;;6.63;5.80;;;;;;;8.74;66.58;100057.28;5114887;28;20187;-66
2021/12/17 09:10:47;;;;;;;12.60;7.83;;;;;;;8.56;66.89;100040.78;5114533;28;20575;-65
2021/12/17 09:13:14;;;;;;;16.93;8.37;;;;;;;8.54;66.67;100047.25;5114819;28;20197;-65
2021/12/17 09:15:41;;;;;;;15.47;8.90;;;;;;;8.48;68.37;100037.31;5114376;28;20722;-65
2021/12/17 09:18:07;;;;;;;11.80;8.50;;;;;;;8.51;68.55;100032.53;5114336;28;20665;-65
2021/12/17 09:20:34;;;;;;;8.67;7.67;;;;;;;8.46;68.20;100021.59;5114738;28;20190;-66
2021/12/17 09:23:01;;;;;;;17.23;9.23;;;;;;;8.49;68.33;100015.16;5114583;28;20247;-65
2021/12/17 09:25:29;;;;;;;5.63;5.13;;;;;;;8.53;67.35;100019.13;5114077;28;20662;-65
2021/12/17 09:27:56;;;;;;;6.23;5.70;;;;;;;8.61;67.82;100013.78;5114121;28;20204;-66
2021/12/17 09:30:23;;;;;;;9.87;5.60;;;;;;;8.54;68.18;100004.88;5114122;28;20542;-65
2021/12/17 09:32:49;;;;;;;5.70;5.30;;;;;;;8.70;67.59;99999.53;5114154;28;20195;-66
2021/12/17 09:35:16;;;;;;;4.90;4.60;;;;;;;8.65;67.73;99997.41;5114784;28;20195;-65
2021/12/17 09:37:43;;;;;;;18.83;9.13;;;;;;;8.84;70.18;99990.84;5114349;28;20197;-68
2021/12/17 09:40:12;;;;;;;27.07;16.57;;;;;;;9.13;69.78;99985.72;5114310;28;20187;-68
2021/12/17 09:42:42;;;;;;;10.70;7.83;;;;;;;9.32;68.19;99985.28;5114323;28;20202;-65
2021/12/17 09:45:10;;;;;;;7.67;6.73;;;;;;;9.07;67.72;99973.19;5113918;28;20216;-65
2021/12/17 09:47:36;;;;;;;5.57;4.97;;;;;;;8.99;67.64;99976.69;5113880;28;20218;-66
2021/12/17 09:50:04;;;;;;;9.43;5.43;;;;;;;8.80;68.67;99976.31;5113185;28;20190;-65
2021/12/17 09:52:31;;;;;;;10.63;9.53;;;;;;;8.80;71.29;99960.41;5108771;28;20267;-69
2021/12/17 09:54:57;;;;;;;5.83;5.27;;;;;;;8.97;69.45;99959.31;5093907;28;20260;-65
2021/12/17 09:57:25;;;;;;;25.60;6.13;;;;;;;8.81;70.11;99960.25;5093562;28;20191;-64
2021/12/17 09:59:54;;;;;;;17.90;11.00;;;;;;;8.79;70.44;99961.44;5093567;28;20568;-64
2021/12/17 10:02:21;;;;;;;5.60;4.53;;;;;;;8.78;70.00;99954.47;5093472;28;20256;-65
2021/12/17 10:04:48;;;;;;;8.20;6.60;;;;;;;8.78;71.13;99954.47;5093981;28;20191;-64
2021/12/17 10:07:20;;;;;;;9.00;4.80;;;;;;;8.79;69.31;99954.28;5095557;28;20219;-65
2021/12/17 10:09:48;;;;;;;15.33;6.30;;;;;;;8.72;70.61;99944.56;5113063;28;20195;-65
2021/12/17 10:12:16;;;;;;;8.70;5.83;;;;;;;8.83;70.98;99931.75;5113627;28;20194;-64
2021/12/17 10:14:43;;;;;;;13.00;7.80;;;;;;;8.86;70.53;99941.19;5114133;28;20228;-65
2021/12/17 10:17:14;;;;;;;7.80;6.57;;;;;;;8.68;71.40;99928.22;5113571;28;20263;-66
2021/12/17 10:19:49;;;;;;;6.83;6.33;;;;;;;8.74;71.29;99921.41;5114423;28;20186;-66
2021/12/17 10:22:19;;;;;;;7.77;7.00;;;;;;;8.68;72.45;99911.47;5113008;28;20734;-66
2021/12/17 10:24:58;;;;;;;6.97;6.27;;;;;;;8.54;73.17;99905.09;5113171;28;20190;-64
2021/12/17 10:27:28;;;;;;;8.53;7.83;;;;;;;8.50;73.52;99900.34;5113622;28;20229;-65
2021/12/17 10:29:55;;;;;;;6.67;6.17;;;;;;;8.40;73.85;99897.06;5113624;28;20186;-64
2021/12/17 10:32:25;;;;;;;6.03;5.53;;;;;;;8.42;74.63;99897.72;5112942;28;20654;-64
2021/12/17 10:35:07;;;;;;;5.63;5.33;;;;;;;8.44;73.92;99887.78;5112954;28;20190;-65
2021/12/17 10:37:40;;;;;;;6.87;6.27;;;;;;;8.52;73.12;99885.09;5113151;28;20252;-65
2021/12/17 10:40:33;;;;;;;7.70;6.97;;;;;;;8.61;72.38;99884.03;5112276;28;20194;-65
2021/12/17 10:43:07;;;;;;;8.40;6.57;;;;;;;8.61;72.07;99886.69;5093535;28;20661;-65
2021/12/17 10:45:36;;;;;;;13.07;5.87;;;;;;;8.60;71.77;99877.09;5113435;28;20191;-65
2021/12/17 10:48:24;;;;;;;6.57;6.07;;;;;;;8.64;70.64;99881.06;5111971;28;20226;-65
2021/12/17 10:50:53;;;;;;;4.50;3.97;;;;;;;8.55;70.62;99871.50;5112913;28;20319;-65
2021/12/17 10:53:23;;;;;;;5.70;5.20;;;;;;;8.50;70.66;99861.44;5112012;28;20194;-64
2021/12/17 10:55:50;;;;;;;8.23;5.87;;;;;;;8.60;70.93;99858.56;5112557;28;20195;-64
2021/12/17 10:58:17;;;;;;;4.30;4.00;;;;;;;8.63;70.41;99860.88;5113009;28;20195;-65
2021/12/17 11:00:50;;;;;;;5.27;4.87;;;;;;;8.62;70.51;99857.41;5112325;28;20195;-64
2021/12/17 11:03:18;;;;;;;5.73;4.33;;;;;;;8.69;69.35;99850.41;5111655;28;20182;-65
2021/12/17 11:05:48;;;;;;;6.70;5.43;;;;;;;8.76;69.41;99853.19;5112022;28;20730;-63
2021/12/17 11:08:28;;;;;;;5.50;4.53;;;;;;;8.87;69.70;99847.47;5112758;28;20246;-66
2021/12/17 11:10:58;;;;;;;5.33;4.80;;;;;;;8.84;69.45;99847.81;5113440;28;20186;-65
2021/12/17 11:13:26;;;;;;;6.93;5.17;;;;;;;8.88;68.74;99843.81;5112422;28;20205;-66
2021/12/17 11:15:54;;;;;;;4.87;4.47;;;;;;;8.95;69.00;99836.81;5112329;28;20662;-66
2021/12/17 11:18:25;;;;;;;5.77;5.37;;;;;;;9.04;69.10;99833.94;5112388;28;20252;-65
2021/12/17 11:20:55;;;;;;;6.13;5.40;;;;;;;9.17;68.04;99846.56;5112385;28;20186;-65
2021/12/17 11:23:23;;;;;;;4.40;4.20;;;;;;;9.11;68.57;99834.06;5112389;28;20248;-64
2021/12/17 11:25:53;;;;;;;4.50;4.10;;;;;;;8.99;68.86;99830.16;5112854;28;20235;-64
2021/12/17 11:28:21;;;;;;;4.30;3.90;;;;;;;9.02;67.82;99827.97;5112902;28;20205;-64
2021/12/17 11:30:49;;;;;;;6.27;5.67;;;;;;;9.02;68.19;99824.50;5113596;28;20190;-65
2021/12/17 11:33:16;;;;;;;4.77;4.37;;;;;;;9.02;68.50;99803.31;5112424;28;20237;-65
2021/12/17 11:35:47;;;;;;;5.67;5.10;;;;;;;9.14;68.52;99809.81;5112649;28;20216;-65
2021/12/17 11:38:16;;;;;;;6.40;5.90;;;;;;;9.11;68.86;99803.06;5112512;28;20190;-66
2021/12/17 11:40:48;;;;;;;5.33;4.83;;;;;;;9.16;68.19;99794.59;5112015;28;20190;-66
2021/12/17 11:43:48;;;;;;;5.87;4.13;;;;;;;9.19;69.03;99799.53;5112740;28;20273;-65
2021/12/17 11:46:17;;;;;;;10.97;4.90;;;;;;;9.23;68.51;99801.63;5112608;28;20557;-66
2021/12/17 11:48:50;;;;;;;8.03;4.60;;;;;;;9.22;68.50;99793.84;5111944;28;20270;-65
2021/12/17 11:51:20;;;;;;;7.03;5.20;;;;;;;9.23;68.28;99790.22;5112373;28;20182;-65
2021/12/17 11:54:06;;;;;;;5.97;5.27;;;;;;;9.19;68.76;99788.94;5112064;28;20252;-65
2021/12/17 11:56:43;;;;;;;6.50;6.00;;;;;;;9.16;69.14;99783.97;5112086;28;20239;-65
2021/12/17 11:59:31;;;;;;;12.73;5.67;;;;;;;9.17;68.58;99790.91;5112393;28;20222;-66
2021/12/17 12:02:01;;;;;;;16.47;8.13;;;;;;;9.15;68.35;99782.34;5111998;28;20665;-66
2021/12/17 12:04:43;;;;;;;5.57;5.17;;;;;;;9.16;68.45;99783.97;5111396;28;20221;-66
2021/12/17 12:07:14;;;;;;;5.47;5.07;;;;;;;9.19;69.52;99767.72;5111995;28;20644;-65
2021/12/17 12:10:21;;;;;;;4.93;4.20;;;;;;;9.28;68.44;99761.34;5112638;28;20550;-66
2021/12/17 12:13:01;;;;;;;5.40;5.00;;;;;;;9.23;68.64;99753.91;5072874;28;20191;-66
2021/12/17 12:15:37;;;;;;;5.50;5.10;;;;;;;9.19;69.06;99757.13;5115524;28;20198;-66
2021/12/17 12:18:18;;;;;;;8.43;4.57;;;;;;;9.19;67.88;99757.13;5116303;28;20190;-66
2021/12/17 12:20:58;;;;;;;4.53;4.27;;;;;;;9.17;68.79;99759.97;5116858;28;20595;-65
2021/12/17 12:23:46;;;;;;;6.13;5.73;;;;;;;9.25;68.79;99756.41;5116002;28;20286;-65
2021/12/17 12:26:33;;;;;;;6.80;6.10;;;;;;;9.21;68.63;99765.72;5115775;28;20230;-65
2021/12/17 12:29:12;;;;;;;6.90;5.57;;;;;;;9.16;68.21;99746.88;5115760;28;20190;-65
2021/12/17 12:32:02;;;;;;;11.73;6.53;;;;;;;9.30;68.09;99754.84;5115493;28;20183;-65
2021/12/17 12:34:34;;;;;;;7.67;6.90;;;;;;;9.27;68.55;99744.59;5115769;28;20178;-66
2021/12/17 12:37:04;;;;;;;10.87;6.00;;;;;;;9.19;68.50;99738.56;5115242;28;20198;-65
2021/12/17 12:39:35;;;;;;;7.80;6.63;;;;;;;9.31;68.20;99739.78;5115593;28;20273;-64
2021/12/17 12:42:05;;;;;;;8.40;6.37;;;;;;;9.29;69.15;99731.16;5115443;28;20183;-65
2021/12/17 12:45:10;;;;;;;9.97;6.53;;;;;;;9.39;69.51;99726.44;5115248;28;20179;-64
2021/12/17 12:47:47;;;;;;;24.50;7.70;;;;;;;9.40;68.39;99717.47;5115773;28;20233;-65
2021/12/17 12:50:15;;;;;;;12.47;6.40;;;;;;;9.38;69.30;99728.25;5115971;28;20227;-64
2021/12/17 12:52:45;;;;;;;8.87;7.47;;;;;;;9.45;68.89;99726.53;5115159;28;20195;-64
2021/12/17 12:55:23;;;;;;;19.07;11.50;;;;;;;9.51;68.95;99727.59;5115274;28;20194;-64
2021/12/17 12:57:52;;;;;;;19.53;8.20;;;;;;;9.46;68.47;99737.94;5115207;28;20186;-64
2021/12/17 13:00:21;;;;;;;31.30;10.03;;;;;;;9.43;69.64;99730.34;5115681;28;20201;-65
2021/12/17 13:02:51;;;;;;;7.57;7.00;;;;;;;9.41;69.42;99738.50;5114688;28;20194;-64
2021/12/17 13:05:19;;;;;;;6.43;6.00;;;;;;;9.51;69.05;99735.56;5115223;28;20258;-64
2021/12/17 13:07:50;;;;;;;6.70;5.83;;;;;;;9.38;69.01;99735.38;5114545;28;20717;-64
2021/12/17 13:10:19;;;;;;;7.87;6.13;;;;;;;9.50;69.75;99731.25;5115364;28;20265;-65
2021/12/17 13:12:54;;;;;;;8.73;7.93;;;;;;;9.51;70.01;99735.56;5114587;28;20745;-66
2021/12/17 13:15:39;;;;;;;13.90;8.40;;;;;;;9.51;70.07;99747.00;5115390;28;20182;-67
2021/12/17 13:20:56;;;;;;;6.50;5.90;;;;;;;9.17;70.87;99732.63;5114501;28;20209;-65
2021/12/17 13:23:24;;;;;;;5.83;5.33;;;;;;;9.15;71.81;99734.66;5114246;28;20187;-66
2021/12/17 13:26:03;;;;;;;7.37;6.67;;;;;;;9.21;72.13;99731.25;5114231;28;20222;-65
2021/12/17 13:28:45;;;;;;;8.60;6.23;;;;;;;9.15;72.15;99727.50;5114443;28;20217;-65
2021/12/17 13:31:12;;;;;;;5.70;5.20;;;;;;;9.00;72.23;99725.84;5114370;28;20174;-66
2021/12/17 13:33:39;;;;;;;6.87;6.27;;;;;;;8.92;72.54;99729.41;5114156;28;20195;-65
2021/12/17 13:36:13;;;;;;;8.70;6.07;;;;;;;8.94;73.37;99726.56;5113987;28;20752;-66
2021/12/17 13:38:42;;;;;;;8.67;7.93;;;;;;;8.96;72.33;99724.56;5114595;28;20252;-65
2021/12/17 13:41:10;;;;;;;11.13;8.10;;;;;;;8.82;73.61;99725.34;5114294;28;20187;-66
2021/12/17 13:43:42;;;;;;;9.93;7.80;;;;;;;8.77;73.32;99717.09;5113586;28;20215;-66
2021/12/17 13:46:09;;;;;;;5.20;4.90;;;;;;;8.81;72.83;99716.56;5107197;28;20191;-66
2021/12/17 13:48:36;;;;;;;6.50;6.00;;;;;;;8.81;73.52;99707.78;5113852;28;20625;-66
2021/12/17 13:51:03;;;;;;;5.33;4.90;;;;;;;8.92;72.30;99712.66;5113817;28;20550;-65
2021/12/17 13:53:30;;;;;;;5.10;4.80;;;;;;;8.73;72.92;99707.88;5113755;28;20244;-66
2021/12/17 13:55:57;;;;;;;14.73;4.70;;;;;;;8.79;72.08;99717.75;5113772;28;20190;-65
2021/12/17 13:58:28;;;;;;;5.47;5.10;;;;;;;8.76;72.45;99718.09;5113675;28;20194;-66
2021/12/17 14:00:58;;;;;;;6.90;5.93;;;;;;;8.84;71.80;99710.94;5114591;28;20189;-66
2021/12/17 14:03:30;;;;;;;6.43;5.93;;;;;;;8.75;72.36;99717.31;5114111;28;20206;-66
2021/12/17 14:06:09;;;;;;;7.50;6.70;;;;;;;8.77;72.06;99709.16;5113967;28;20193;-66